createdAt,value
2016-06-17T00:00:53.869Z,0
2016-06-17T00:01:54.030Z,0
2016-06-17T00:02:53.892Z,0
2016-06-17T00:03:53.895Z,0
2016-06-17T00:04:53.930Z,0
2016-06-17T00:05:53.919Z,0
2016-06-17T00:06:53.937Z,0
2016-06-17T00:07:54.081Z,0
2016-06-17T00:08:54.116Z,0
2016-06-17T00:09:53.963Z,0
2016-06-17T00:10:53.998Z,0
2016-06-17T00:11:53.985Z,0
2016-06-17T00:12:53.864Z,0
2016-06-17T00:13:54.196Z,0
2016-06-17T00:14:54.183Z,0
2016-06-17T00:15:54.015Z,0
2016-06-17T00:16:54.222Z,0
2016-06-17T00:17:54.225Z,0
2016-06-17T00:18:54.244Z,0
2016-06-17T00:19:54.076Z,0
2016-06-17T00:20:54.282Z,0
2016-06-17T00:21:54.083Z,0
2016-06-17T00:22:54.289Z,0
2016-06-17T00:23:53.965Z,0
2016-06-17T00:24:54.296Z,0
2016-06-17T00:25:53.988Z,0
2016-06-17T00:26:54.319Z,0
2016-06-17T00:27:54.151Z,0
2016-06-17T00:28:54.357Z,0
2016-06-17T00:29:54.032Z,0
2016-06-17T00:30:54.520Z,0
2016-06-17T00:31:54.398Z,0
2016-06-17T00:32:54.387Z,0
2016-06-17T00:33:54.405Z,0
2016-06-17T00:34:54.425Z,0
2016-06-17T00:35:54.272Z,0
2016-06-17T00:36:54.416Z,0
2016-06-17T00:37:54.294Z,0
2016-06-17T00:38:54.439Z,0
2016-06-17T00:39:54.317Z,0
2016-06-17T00:40:54.304Z,0
2016-06-17T00:41:54.355Z,0
2016-06-17T00:42:54.484Z,0
2016-06-17T00:43:54.346Z,0
2016-06-17T00:44:54.381Z,0
2016-06-17T00:45:54.524Z,0
2016-06-17T00:46:54.544Z,0
2016-06-17T00:47:54.392Z,0
2016-06-17T00:48:54.535Z,0
2016-06-17T00:49:54.413Z,0
2016-06-17T00:50:54.604Z,0
2016-06-17T00:51:54.607Z,0
2016-06-17T00:52:54.438Z,0
2016-06-17T00:53:54.628Z,0
2016-06-17T00:54:54.444Z,0
2016-06-17T00:55:54.509Z,0
2016-06-17T00:56:54.637Z,0
2016-06-17T00:57:54.516Z,0
2016-06-17T00:58:54.676Z,0
2016-06-17T00:59:54.383Z,0
2016-06-17T01:00:54.542Z,0
2016-06-17T01:01:54.717Z,0
2016-06-17T01:02:54.705Z,0
2016-06-17T01:03:54.583Z,0
2016-06-17T01:04:54.758Z,0
2016-06-17T01:05:54.590Z,0
2016-06-17T01:06:54.594Z,0
2016-06-17T01:07:54.769Z,0
2016-06-17T01:08:54.617Z,0
2016-06-17T01:09:54.792Z,0
2016-06-17T01:10:54.639Z,0
2016-06-17T01:11:54.814Z,0
2016-06-17T01:12:54.802Z,0
2016-06-17T01:13:54.852Z,0
2016-06-17T01:14:54.684Z,0
2016-06-17T01:15:54.703Z,0
2016-06-17T01:16:54.863Z,0
2016-06-17T01:17:54.725Z,0
2016-06-17T01:18:54.885Z,0
2016-06-17T01:19:54.904Z,0
2016-06-17T01:20:54.908Z,0
2016-06-17T01:21:54.928Z,0
2016-06-17T01:22:54.930Z,0
2016-06-17T01:23:54.794Z,0
2016-06-17T01:24:54.968Z,0
2016-06-17T01:25:54.972Z,0
2016-06-17T01:26:54.820Z,0
2016-06-17T01:27:54.666Z,0
2016-06-17T01:28:54.997Z,0
2016-06-17T01:29:55.001Z,0
2016-06-17T01:30:55.020Z,0
2016-06-17T01:31:55.024Z,0
2016-06-17T01:32:55.044Z,0
2016-06-17T01:33:55.030Z,0
2016-06-17T01:34:55.050Z,0
2016-06-17T01:35:55.085Z,0
2016-06-17T01:36:55.089Z,0
2016-06-17T01:37:55.092Z,0
2016-06-17T01:38:55.112Z,0
2016-06-17T01:39:54.801Z,0
2016-06-17T01:40:55.336Z,0
2016-06-17T01:41:55.153Z,0
2016-06-17T01:42:55.015Z,0
2016-06-17T01:43:55.144Z,0
2016-06-17T01:44:55.178Z,0
2016-06-17T01:45:55.150Z,0
2016-06-17T01:46:54.889Z,0
2016-06-17T01:47:55.189Z,0
2016-06-17T01:48:55.238Z,0
2016-06-17T01:49:55.086Z,0
2016-06-17T01:50:55.090Z,0
2016-06-17T01:51:55.234Z,0
2016-06-17T01:52:55.113Z,0
2016-06-17T01:53:55.116Z,0
2016-06-17T01:54:55.275Z,0
2016-06-17T01:55:55.310Z,0
2016-06-17T01:56:55.301Z,0
2016-06-17T01:57:55.306Z,0
2016-06-17T01:58:55.341Z,0
2016-06-17T01:59:55.330Z,0
2016-06-17T02:00:55.351Z,0
2016-06-17T02:01:55.214Z,0
2016-06-17T02:02:55.390Z,0
2016-06-17T02:03:55.222Z,0
2016-06-17T02:04:55.428Z,0
2016-06-17T02:05:55.432Z,0
2016-06-17T02:06:55.452Z,0
2016-06-17T02:07:55.456Z,0
2016-06-17T02:08:55.476Z,0
2016-06-17T02:09:55.479Z,0
2016-06-17T02:10:55.514Z,0
2016-06-17T02:11:55.487Z,0
2016-06-17T02:12:55.178Z,0
2016-06-17T02:13:55.352Z,0
2016-06-17T02:14:55.387Z,0
2016-06-17T02:15:55.531Z,0
2016-06-17T02:16:55.379Z,0
2016-06-17T02:17:55.554Z,0
2016-06-17T02:18:55.386Z,0
2016-06-17T02:19:55.264Z,0
2016-06-17T02:20:55.564Z,0
2016-06-17T02:21:55.584Z,0
2016-06-17T02:22:55.586Z,0
2016-06-17T02:23:55.637Z,0
2016-06-17T02:24:55.610Z,0
2016-06-17T02:25:55.628Z,0
2016-06-17T02:26:55.648Z,0
2016-06-17T02:27:55.668Z,0
2016-06-17T02:28:55.654Z,0
2016-06-17T02:29:55.689Z,0
2016-06-17T02:30:55.521Z,0
2016-06-17T02:31:55.696Z,0
2016-06-17T02:32:55.560Z,0
2016-06-17T02:33:55.562Z,0
2016-06-17T02:34:55.566Z,0
2016-06-17T02:35:55.757Z,0
2016-06-17T02:36:55.730Z,0
2016-06-17T02:37:55.622Z,0
2016-06-17T02:38:55.767Z,0
2016-06-17T02:39:55.787Z,0
2016-06-17T02:40:55.649Z,0
2016-06-17T02:41:55.809Z,0
2016-06-17T02:42:55.812Z,0
2016-06-17T02:43:55.503Z,0
2016-06-17T02:44:55.882Z,0
2016-06-17T02:45:55.526Z,0
2016-06-17T02:46:55.889Z,0
2016-06-17T02:47:55.861Z,0
2016-06-17T02:48:55.583Z,0
2016-06-17T02:49:55.914Z,0
2016-06-17T02:50:55.903Z,0
2016-06-17T02:51:55.921Z,0
2016-06-17T02:52:55.768Z,0
2016-06-17T02:53:55.944Z,0
2016-06-17T02:54:55.807Z,0
2016-06-17T02:55:55.982Z,0
2016-06-17T02:56:56.001Z,0
2016-06-17T02:57:55.880Z,0
2016-06-17T02:58:55.977Z,0
2016-06-17T02:59:55.684Z,0
2016-06-17T03:00:56.031Z,0
2016-06-17T03:01:56.019Z,0
2016-06-17T03:02:56.053Z,0
2016-06-17T03:03:56.057Z,0
2016-06-17T03:04:55.763Z,0
2016-06-17T03:05:56.080Z,0
2016-06-17T03:06:55.911Z,0
2016-06-17T03:07:55.945Z,0
2016-06-17T03:08:55.793Z,0
2016-06-17T03:09:56.108Z,0
2016-06-17T03:10:56.128Z,0
2016-06-17T03:11:55.819Z,0
2016-06-17T03:12:56.151Z,0
2016-06-17T03:13:56.154Z,0
2016-06-17T03:14:56.048Z,0
2016-06-17T03:15:56.176Z,0
2016-06-17T03:16:56.212Z,0
2016-06-17T03:17:56.058Z,0
2016-06-17T03:18:56.233Z,0
2016-06-17T03:19:56.222Z,0
2016-06-17T03:20:56.256Z,0
2016-06-17T03:21:56.244Z,0
2016-06-17T03:22:56.295Z,0
2016-06-17T03:23:56.251Z,0
2016-06-17T03:24:56.129Z,0
2016-06-17T03:25:56.274Z,0
2016-06-17T03:26:56.152Z,0
2016-06-17T03:27:56.296Z,0
2016-06-17T03:28:56.346Z,0
2016-06-17T03:29:56.335Z,0
2016-06-17T03:30:56.041Z,0
2016-06-17T03:31:56.341Z,0
2016-06-17T03:32:56.235Z,0
2016-06-17T03:33:56.395Z,0
2016-06-17T03:34:56.398Z,0
2016-06-17T03:35:56.403Z,0
2016-06-17T03:36:56.264Z,0
2016-06-17T03:37:56.409Z,0
2016-06-17T03:38:56.288Z,0
2016-06-17T03:39:56.432Z,0
2016-06-17T03:40:56.450Z,0
2016-06-17T03:41:56.454Z,0
2016-06-17T03:42:56.316Z,0
2016-06-17T03:43:56.492Z,0
2016-06-17T03:44:56.527Z,0
2016-06-17T03:45:56.515Z,0
2016-06-17T03:46:56.534Z,0
2016-06-17T03:47:56.522Z,0
2016-06-17T03:48:56.401Z,0
2016-06-17T03:49:56.262Z,0
2016-06-17T03:50:56.407Z,0
2016-06-17T03:51:56.442Z,0
2016-06-17T03:52:56.601Z,0
2016-06-17T03:53:56.418Z,0
2016-06-17T03:54:56.608Z,0
2016-06-17T03:55:56.611Z,0
2016-06-17T03:56:56.490Z,0
2016-06-17T03:57:56.697Z,0
2016-06-17T03:58:56.513Z,0
2016-06-17T03:59:56.500Z,0
2016-06-17T04:00:56.676Z,0
2016-06-17T04:01:56.523Z,0
2016-06-17T04:02:56.699Z,0
2016-06-17T04:03:56.702Z,0
2016-06-17T04:04:56.705Z,0
2016-06-17T04:05:56.568Z,0
2016-06-17T04:06:56.572Z,0
2016-06-17T04:07:56.747Z,0
2016-06-17T04:08:56.656Z,0
2016-06-17T04:09:56.754Z,0
2016-06-17T04:10:56.648Z,0
2016-06-17T04:11:56.792Z,0
2016-06-17T04:12:56.814Z,0
2016-06-17T04:13:56.524Z,0
2016-06-17T04:14:56.687Z,0
2016-06-17T04:15:56.835Z,0
2016-06-17T04:16:56.700Z,0
2016-06-17T04:17:56.722Z,0
2016-06-17T04:18:56.898Z,0
2016-06-17T04:19:56.918Z,0
2016-06-17T04:20:56.907Z,0
2016-06-17T04:21:56.943Z,0
2016-06-17T04:22:56.760Z,0
2016-06-17T04:23:56.951Z,0
2016-06-17T04:24:56.799Z,0
2016-06-17T04:25:56.834Z,0
2016-06-17T04:26:56.962Z,0
2016-06-17T04:27:56.997Z,0
2016-06-17T04:28:57.001Z,0
2016-06-17T04:29:56.849Z,0
2016-06-17T04:30:57.025Z,0
2016-06-17T04:31:56.903Z,0
2016-06-17T04:32:57.033Z,0
2016-06-17T04:33:57.066Z,4
2016-06-17T04:34:57.101Z,4
2016-06-17T04:35:57.090Z,4
2016-06-17T04:36:57.094Z,4
2016-06-17T04:37:57.111Z,4
2016-06-17T04:38:57.115Z,4
2016-06-17T04:39:57.150Z,4
2016-06-17T04:40:56.825Z,4
2016-06-17T04:41:57.173Z,0
2016-06-17T04:42:56.988Z,0
2016-06-17T04:43:57.164Z,4
2016-06-17T04:44:57.010Z,4
2016-06-17T04:45:57.203Z,4
2016-06-17T04:46:57.206Z,8
2016-06-17T04:47:57.085Z,8
2016-06-17T04:48:57.243Z,4
2016-06-17T04:49:57.231Z,4
2016-06-17T04:50:57.234Z,4
2016-06-17T04:51:57.254Z,4
2016-06-17T04:52:57.289Z,4
2016-06-17T04:53:57.261Z,4
2016-06-17T04:54:57.139Z,4
2016-06-17T04:55:57.284Z,4
2016-06-17T04:56:57.319Z,8
2016-06-17T04:57:57.322Z,4
2016-06-17T04:58:57.342Z,4
2016-06-17T04:59:57.203Z,4
2016-06-17T05:00:57.191Z,8
2016-06-17T05:01:57.211Z,4
2016-06-17T05:02:57.230Z,4
2016-06-17T05:03:57.093Z,4
2016-06-17T05:04:57.408Z,0
2016-06-17T05:05:57.427Z,0
2016-06-17T05:06:57.400Z,4
2016-06-17T05:07:57.419Z,4
2016-06-17T05:08:57.454Z,4
2016-06-17T05:09:57.286Z,4
2016-06-17T05:10:57.319Z,4
2016-06-17T05:11:57.307Z,4
2016-06-17T05:12:57.499Z,4
2016-06-17T05:13:57.330Z,4
2016-06-17T05:14:57.350Z,0
2016-06-17T05:15:57.509Z,0
2016-06-17T05:16:57.387Z,0
2016-06-17T05:17:57.532Z,0
2016-06-17T05:18:57.566Z,0
2016-06-17T05:19:57.554Z,0
2016-06-17T05:20:57.558Z,4
2016-06-17T05:21:57.435Z,4
2016-06-17T05:22:57.611Z,4
2016-06-17T05:23:57.598Z,4
2016-06-17T05:24:57.618Z,4
2016-06-17T05:25:58.153Z,4
2016-06-17T05:26:57.500Z,4
2016-06-17T05:27:57.645Z,4
2016-06-17T05:28:57.679Z,4
2016-06-17T05:29:57.667Z,4
2016-06-17T05:30:57.405Z,4
2016-06-17T05:31:57.674Z,4
2016-06-17T05:32:57.568Z,4
2016-06-17T05:33:57.712Z,4
2016-06-17T05:34:57.716Z,4
2016-06-17T05:35:57.594Z,4
2016-06-17T05:36:57.738Z,4
2016-06-17T05:37:57.772Z,4
2016-06-17T05:38:57.776Z,4
2016-06-17T05:39:57.639Z,4
2016-06-17T05:40:57.782Z,4
2016-06-17T05:41:57.786Z,4
2016-06-17T05:42:57.805Z,4
2016-06-17T05:43:57.825Z,4
2016-06-17T05:44:57.828Z,4
2016-06-17T05:45:57.863Z,4
2016-06-17T05:46:57.866Z,4
2016-06-17T05:47:57.886Z,4
2016-06-17T05:48:57.889Z,4
2016-06-17T05:49:57.924Z,4
2016-06-17T05:50:57.896Z,4
2016-06-17T05:51:57.899Z,4
2016-06-17T05:52:57.918Z,4
2016-06-17T05:53:57.781Z,4
2016-06-17T05:54:57.785Z,4
2016-06-17T05:55:57.819Z,4
2016-06-17T05:56:57.948Z,4
2016-06-17T05:57:57.966Z,4
2016-06-17T05:58:57.813Z,4
2016-06-17T05:59:57.865Z,4
2016-06-17T06:00:58.008Z,4
2016-06-17T06:01:58.043Z,4
2016-06-17T06:02:58.031Z,4
2016-06-17T06:03:58.050Z,4
2016-06-17T06:04:57.881Z,4
2016-06-17T06:05:58.056Z,4
2016-06-17T06:06:57.919Z,4
2016-06-17T06:07:58.095Z,4
2016-06-17T06:08:58.099Z,4
2016-06-17T06:09:57.961Z,4
2016-06-17T06:10:58.121Z,4
2016-06-17T06:11:57.968Z,4
2016-06-17T06:12:58.143Z,4
2016-06-17T06:13:58.007Z,4
2016-06-17T06:14:57.994Z,4
2016-06-17T06:15:58.185Z,4
2016-06-17T06:16:58.189Z,4
2016-06-17T06:17:58.051Z,4
2016-06-17T06:18:58.196Z,4
2016-06-17T06:19:58.215Z,4
2016-06-17T06:20:58.217Z,4
2016-06-17T06:21:58.222Z,4
2016-06-17T06:22:58.099Z,8
2016-06-17T06:23:58.119Z,8
2016-06-17T06:24:58.279Z,4
2016-06-17T06:25:58.298Z,4
2016-06-17T06:26:58.130Z,4
2016-06-17T06:27:58.289Z,4
2016-06-17T06:28:58.309Z,4
2016-06-17T06:29:58.317Z,4
2016-06-17T06:30:58.373Z,4
2016-06-17T06:31:58.365Z,4
2016-06-17T06:32:58.233Z,4
2016-06-17T06:33:58.382Z,4
2016-06-17T06:34:58.403Z,4
2016-06-17T06:35:58.408Z,4
2016-06-17T06:36:58.131Z,4
2016-06-17T06:37:58.448Z,4
2016-06-17T06:38:58.298Z,8
2016-06-17T06:39:58.302Z,4
2016-06-17T06:40:58.338Z,4
2016-06-17T06:41:58.482Z,4
2016-06-17T06:42:58.487Z,4
2016-06-17T06:43:58.506Z,4
2016-06-17T06:44:58.384Z,8
2016-06-17T06:45:58.529Z,4
2016-06-17T06:46:58.547Z,4
2016-06-17T06:47:58.395Z,4
2016-06-17T06:48:58.429Z,4
2016-06-17T06:49:58.276Z,8
2016-06-17T06:50:58.593Z,8
2016-06-17T06:51:58.455Z,8
2016-06-17T06:52:58.631Z,8
2016-06-17T06:53:58.619Z,4
2016-06-17T06:54:58.638Z,4
2016-06-17T06:55:58.345Z,8
2016-06-17T06:56:58.691Z,8
2016-06-17T06:57:58.679Z,8
2016-06-17T06:58:58.699Z,8
2016-06-17T06:59:58.671Z,8
2016-06-17T07:00:58.690Z,12
2016-06-17T07:01:58.693Z,12
2016-06-17T07:02:58.571Z,12
2016-06-17T07:03:58.559Z,12
2016-06-17T07:04:58.594Z,12
2016-06-17T07:05:58.754Z,16
2016-06-17T07:06:58.774Z,12
2016-06-17T07:07:58.635Z,12
2016-06-17T07:08:58.639Z,16
2016-06-17T07:09:58.798Z,16
2016-06-17T07:10:58.787Z,16
2016-06-17T07:11:58.822Z,16
2016-06-17T07:12:58.841Z,16
2016-06-17T07:13:58.876Z,16
2016-06-17T07:14:58.848Z,20
2016-06-17T07:15:58.851Z,16
2016-06-17T07:16:58.870Z,16
2016-06-17T07:17:58.562Z,16
2016-06-17T07:18:58.751Z,20
2016-06-17T07:19:58.756Z,20
2016-06-17T07:20:58.946Z,20
2016-06-17T07:21:58.903Z,20
2016-06-17T07:22:58.922Z,24
2016-06-17T07:23:58.942Z,24
2016-06-17T07:24:58.976Z,24
2016-06-17T07:25:58.995Z,24
2016-06-17T07:26:58.998Z,24
2016-06-17T07:27:58.971Z,28
2016-06-17T07:28:59.084Z,28
2016-06-17T07:29:59.039Z,24
2016-06-17T07:30:58.888Z,24
2016-06-17T07:31:59.046Z,32
2016-06-17T07:32:59.066Z,32
2016-06-17T07:33:58.929Z,32
2016-06-17T07:34:59.121Z,36
2016-06-17T07:35:59.092Z,32
2016-06-17T07:36:59.127Z,28
2016-06-17T07:37:58.927Z,32
2016-06-17T07:38:59.118Z,32
2016-06-17T07:39:59.105Z,32
2016-06-17T07:40:59.141Z,32
2016-06-17T07:41:58.973Z,28
2016-06-17T07:42:59.162Z,28
2016-06-17T07:43:59.166Z,28
2016-06-17T07:44:59.186Z,28
2016-06-17T07:45:59.189Z,28
2016-06-17T07:46:59.037Z,24
2016-06-17T07:47:59.212Z,24
2016-06-17T07:48:59.200Z,20
2016-06-17T07:49:59.062Z,24
2016-06-17T07:50:59.268Z,20
2016-06-17T07:51:59.257Z,20
2016-06-17T07:52:59.089Z,24
2016-06-17T07:53:59.264Z,24
2016-06-17T07:54:59.267Z,24
2016-06-17T07:55:59.552Z,20
2016-06-17T07:56:59.289Z,20
2016-06-17T07:57:59.309Z,16
2016-06-17T07:58:59.359Z,20
2016-06-17T07:59:59.300Z,20
2016-06-17T08:04:57.318Z,28
2016-06-17T08:05:07.443Z,28
2016-06-17T08:06:06.822Z,28
2016-06-17T08:07:06.841Z,24
2016-06-17T08:08:06.844Z,24
2016-06-17T08:09:06.848Z,24
2016-06-17T08:10:06.866Z,24
2016-06-17T08:11:06.855Z,20
2016-06-17T08:12:07.609Z,20
2016-06-17T08:13:06.876Z,24
2016-06-17T08:14:06.896Z,20
2016-06-17T08:15:06.899Z,24
2016-06-17T08:16:06.934Z,28
2016-06-17T08:17:06.921Z,28
2016-06-17T08:18:06.941Z,32
2016-06-17T08:19:07.570Z,32
2016-06-17T08:20:06.964Z,36
2016-06-17T08:21:06.998Z,32
2016-06-17T08:22:08.174Z,36
2016-06-17T08:23:07.005Z,28
2016-06-17T08:24:07.009Z,28
2016-06-17T08:25:06.981Z,28
2016-06-17T08:26:07.032Z,24
2016-06-17T08:27:07.035Z,24
2016-06-17T08:28:07.054Z,24
2016-06-17T08:29:07.026Z,24
2016-06-17T08:30:07.671Z,28
2016-06-17T08:31:08.283Z,32
2016-06-17T08:32:07.662Z,32
2016-06-17T08:33:07.088Z,32
2016-06-17T08:34:07.106Z,36
2016-06-17T08:35:07.110Z,32
2016-06-17T08:36:07.112Z,36
2016-06-17T08:37:07.132Z,32
2016-06-17T08:38:07.167Z,32
2016-06-17T08:39:07.748Z,32
2016-06-17T08:40:07.752Z,32
2016-06-17T08:41:07.177Z,28
2016-06-17T08:42:07.493Z,32
2016-06-17T08:43:07.184Z,32
2016-06-17T08:44:07.219Z,32
2016-06-17T08:44:29.906Z,32
2016-06-17T08:45:29.644Z,32
2016-06-17T08:46:29.710Z,32
2016-06-17T08:47:29.668Z,36
2016-06-17T08:48:29.984Z,36
2016-06-17T08:49:29.706Z,40
2016-06-17T08:50:29.725Z,36
2016-06-17T08:51:29.698Z,36
2016-06-17T08:52:29.733Z,40
2016-06-17T08:53:30.799Z,40
2016-06-17T08:54:29.755Z,40
2016-06-17T08:55:30.024Z,40
2016-06-17T08:56:29.763Z,40
2016-06-17T08:57:29.766Z,44
2016-06-17T08:58:29.817Z,44
2016-06-17T08:59:29.804Z,44
2016-06-17T09:00:29.855Z,40
2016-06-17T09:01:30.514Z,40
2016-06-17T09:02:29.830Z,44
2016-06-17T09:03:30.459Z,44
2016-06-17T09:04:29.837Z,40
2016-06-17T09:05:30.060Z,44
2016-06-17T09:06:30.188Z,44
2016-06-17T09:07:30.519Z,44
2016-06-17T09:08:31.398Z,44
2016-06-17T09:16:29.923Z,36
2016-06-17T09:17:30.177Z,36
2016-06-17T09:24:27.691Z,32
2016-06-17T09:25:27.288Z,28
2016-06-17T09:26:27.292Z,32
2016-06-17T09:27:27.108Z,28
2016-06-17T09:28:27.752Z,32
2016-06-17T09:29:27.178Z,36
2016-06-17T09:30:27.134Z,28
2016-06-17T09:31:27.215Z,28
2016-06-17T09:32:27.157Z,28
2016-06-17T09:33:27.942Z,28
2016-06-17T09:34:27.789Z,28
2016-06-17T09:35:27.214Z,28
2016-06-17T09:36:27.311Z,28
2016-06-17T09:37:27.236Z,28
2016-06-17T09:38:27.224Z,32
2016-06-17T09:39:27.244Z,28
2016-06-17T09:40:27.247Z,28
2016-06-17T09:41:27.893Z,36
2016-06-17T09:42:27.287Z,36
2016-06-17T09:43:27.277Z,36
2016-06-17T09:44:27.454Z,32
2016-06-17T09:45:27.318Z,36
2016-06-17T09:46:27.931Z,36
2016-06-17T09:47:27.357Z,28
2016-06-17T09:48:27.798Z,32
2016-06-17T09:49:28.006Z,32
2016-06-17T09:50:27.993Z,32
2016-06-17T09:51:28.013Z,32
2016-06-17T09:52:28.016Z,28
2016-06-17T09:53:28.035Z,28
2016-06-17T09:54:27.413Z,28
2016-06-17T09:55:27.433Z,28
2016-06-17T09:56:27.436Z,28
2016-06-17T09:57:28.064Z,32
2016-06-17T09:58:27.462Z,36
2016-06-17T09:59:27.483Z,36
2016-06-17T10:00:27.504Z,36
2016-06-17T10:01:27.511Z,40
2016-06-17T10:02:27.672Z,44
2016-06-17T10:03:27.537Z,48
2016-06-17T10:04:27.557Z,48
2016-06-17T10:05:27.546Z,48
2016-06-17T10:06:27.612Z,48
2016-06-17T10:07:27.569Z,52
2016-06-17T10:08:27.588Z,48
2016-06-17T10:09:27.608Z,44
2016-06-17T10:10:27.628Z,44
2016-06-17T10:11:27.632Z,44
2016-06-17T10:12:28.244Z,52
2016-06-17T10:13:27.733Z,52
2016-06-17T10:14:27.658Z,40
2016-06-17T10:15:27.678Z,48
2016-06-17T10:16:28.292Z,52
2016-06-17T10:17:27.686Z,56
2016-06-17T10:18:27.706Z,52
2016-06-17T10:19:27.726Z,48
2016-06-17T10:20:27.730Z,44
2016-06-17T10:21:27.734Z,52
2016-06-17T10:22:27.769Z,52
2016-06-17T10:23:28.367Z,48
2016-06-17T10:24:27.777Z,56
2016-06-17T10:25:27.795Z,56
2016-06-17T10:26:27.814Z,52
2016-06-17T10:27:27.802Z,40
2016-06-17T10:28:28.431Z,40
2016-06-17T10:29:28.466Z,48
2016-06-17T10:30:28.453Z,44
2016-06-17T10:31:28.473Z,44
2016-06-17T10:32:28.476Z,48
2016-06-17T10:33:28.479Z,44
2016-06-17T10:34:28.514Z,48
2016-06-17T10:35:27.924Z,48
2016-06-17T10:36:28.521Z,36
2016-06-17T10:37:27.962Z,44
2016-06-17T10:38:28.544Z,32
2016-06-17T10:39:27.985Z,32
2016-06-17T10:40:27.941Z,44
2016-06-17T10:41:27.960Z,40
2016-06-17T10:42:27.979Z,40
2016-06-17T10:43:27.983Z,48
2016-06-17T10:44:28.002Z,40
2016-06-17T10:45:28.036Z,48
2016-06-17T10:46:28.650Z,40
2016-06-17T10:47:28.043Z,40
2016-06-17T10:48:28.078Z,40
2016-06-17T10:49:29.317Z,40
2016-06-17T10:50:28.102Z,40
2016-06-17T10:51:28.091Z,40
2016-06-17T10:52:28.095Z,44
2016-06-17T10:53:28.724Z,44
2016-06-17T10:54:28.744Z,40
2016-06-17T10:55:28.122Z,40
2016-06-17T10:56:28.766Z,44
2016-06-17T10:57:28.159Z,52
2016-06-17T10:58:28.178Z,48
2016-06-17T10:59:28.245Z,56
2016-06-17T11:00:28.202Z,56
2016-06-17T11:01:28.205Z,52
2016-06-17T11:02:28.224Z,52
2016-06-17T11:03:28.243Z,52
2016-06-17T11:04:28.840Z,48
2016-06-17T11:05:28.235Z,48
2016-06-17T11:06:28.269Z,44
2016-06-17T11:07:28.270Z,48
2016-06-17T11:08:28.319Z,28
2016-06-17T11:09:28.290Z,32
2016-06-17T11:10:28.918Z,40
2016-06-17T11:11:28.312Z,40
2016-06-17T11:12:28.330Z,44
2016-06-17T11:13:28.380Z,44
2016-06-17T11:14:28.352Z,24
2016-06-17T11:15:28.355Z,24
2016-06-17T11:16:28.999Z,24
2016-06-17T11:17:28.378Z,24
2016-06-17T11:18:28.396Z,28
2016-06-17T11:19:29.650Z,36
2016-06-17T11:20:28.436Z,44
2016-06-17T11:21:28.453Z,28
2016-06-17T11:22:28.426Z,24
2016-06-17T11:23:28.461Z,28
2016-06-17T11:24:28.808Z,28
2016-06-17T11:25:28.484Z,24
2016-06-17T11:26:28.487Z,24
2016-06-17T11:27:28.787Z,24
2016-06-17T11:28:29.728Z,44
2016-06-17T11:29:28.512Z,44
2016-06-17T11:30:28.548Z,48
2016-06-17T11:31:29.754Z,24
2016-06-17T11:32:29.163Z,36
2016-06-17T11:33:28.559Z,32
2016-06-17T11:34:28.577Z,32
2016-06-17T11:35:28.596Z,52
2016-06-17T11:36:28.600Z,44
2016-06-17T11:37:29.853Z,36
2016-06-17T11:38:28.623Z,40
2016-06-17T11:39:28.955Z,44
2016-06-17T11:40:29.238Z,32
2016-06-17T11:41:28.851Z,40
2016-06-17T11:42:28.650Z,36
2016-06-17T11:43:29.684Z,36
2016-06-17T11:44:29.407Z,40
2016-06-17T11:45:28.707Z,28
2016-06-17T11:46:28.710Z,28
2016-06-17T11:47:29.540Z,36
2016-06-17T11:48:28.732Z,36
2016-06-17T11:49:28.735Z,36
2016-06-17T11:50:29.722Z,12
2016-06-17T11:51:29.382Z,12
2016-06-17T11:52:28.963Z,32
2016-06-17T11:53:28.810Z,28
2016-06-17T11:54:28.799Z,40
2016-06-17T11:55:29.162Z,40
2016-06-17T11:56:28.977Z,40
2016-06-17T11:57:28.856Z,40
2016-06-17T11:58:28.859Z,24
2016-06-17T11:59:29.737Z,40
2016-06-17T12:00:29.491Z,44
2016-06-17T12:01:29.088Z,44
2016-06-17T12:02:29.514Z,44
2016-06-17T12:03:29.190Z,28
2016-06-17T12:04:30.193Z,48
2016-06-17T12:05:29.540Z,24
2016-06-17T12:06:29.247Z,24
2016-06-17T12:07:28.969Z,44
2016-06-17T12:08:28.973Z,44
2016-06-17T12:09:29.804Z,28
2016-06-17T12:10:28.995Z,44
2016-06-17T12:11:29.029Z,20
2016-06-17T12:12:29.736Z,24
2016-06-17T12:13:29.021Z,44
2016-06-17T12:14:29.087Z,44
2016-06-17T12:15:29.063Z,48
2016-06-17T12:16:29.850Z,40
2016-06-17T12:17:29.091Z,24
2016-06-17T12:18:29.895Z,48
2016-06-17T12:19:29.086Z,48
2016-06-17T12:20:29.373Z,52
2016-06-17T12:21:29.127Z,52
2016-06-17T12:22:29.148Z,32
2016-06-17T12:23:29.199Z,36
2016-06-17T12:24:29.828Z,48
2016-06-17T12:25:29.191Z,44
2016-06-17T12:26:29.195Z,40
2016-06-17T12:27:29.215Z,40
2016-06-17T12:28:29.219Z,40
2016-06-17T12:29:29.254Z,32
2016-06-17T12:30:29.429Z,32
2016-06-17T12:31:29.261Z,36
2016-06-17T12:32:30.482Z,36
2016-06-17T12:33:29.580Z,24
2016-06-17T12:34:29.912Z,20
2016-06-17T12:35:30.227Z,40
2016-06-17T12:36:29.403Z,20
2016-06-17T12:37:29.953Z,16
2016-06-17T12:38:29.503Z,20
2016-06-17T12:39:29.351Z,28
2016-06-17T12:40:29.964Z,28
2016-06-17T12:41:29.998Z,32
2016-06-17T12:42:29.407Z,32
2016-06-17T12:43:29.646Z,32
2016-06-17T12:44:29.414Z,40
2016-06-17T12:45:29.418Z,48
2016-06-17T12:46:30.031Z,44
2016-06-17T12:47:29.440Z,24
2016-06-17T12:48:29.460Z,44
2016-06-17T12:49:30.089Z,40
2016-06-17T12:50:29.467Z,28
2016-06-17T12:51:29.846Z,44
2016-06-17T12:52:29.505Z,40
2016-06-17T12:53:29.634Z,40
2016-06-17T12:54:29.528Z,40
2016-06-17T12:55:30.265Z,32
2016-06-17T12:56:29.550Z,24
2016-06-17T12:57:30.397Z,16
2016-06-17T12:58:30.198Z,16
2016-06-17T12:59:29.748Z,32
2016-06-17T13:00:30.391Z,36
2016-06-17T13:01:30.208Z,16
2016-06-17T13:02:29.712Z,24
2016-06-17T13:03:29.621Z,24
2016-06-17T13:04:30.250Z,16
2016-06-17T13:05:30.347Z,16
2016-06-17T13:06:30.287Z,36
2016-06-17T13:07:29.681Z,40
2016-06-17T13:08:29.701Z,36
2016-06-17T13:09:30.314Z,40
2016-06-17T13:10:30.473Z,40
2016-06-17T13:11:29.727Z,36
2016-06-17T13:12:45.261Z,20
2016-06-17T13:13:29.734Z,16
2016-06-17T13:14:29.878Z,12
2016-06-17T13:15:29.768Z,16
2016-06-17T13:16:29.822Z,36
2016-06-17T13:17:29.775Z,36
2016-06-17T13:18:29.825Z,40
2016-06-17T13:19:29.814Z,40
2016-06-17T13:20:30.414Z,40
2016-06-17T13:21:29.836Z,40
2016-06-17T13:22:29.856Z,36
2016-06-17T13:23:29.859Z,20
2016-06-17T13:24:29.862Z,40
2016-06-17T13:25:29.897Z,36
2016-06-17T13:26:29.900Z,40
2016-06-17T13:27:30.517Z,40
2016-06-17T13:28:29.907Z,44
2016-06-17T13:29:29.942Z,44
2016-06-17T13:30:29.929Z,40
2016-06-17T13:31:29.996Z,40
2016-06-17T13:32:29.967Z,40
2016-06-17T13:33:29.971Z,40
2016-06-17T13:34:29.975Z,32
2016-06-17T13:35:30.041Z,20
2016-06-17T13:36:30.670Z,20
2016-06-17T13:37:31.255Z,16
2016-06-17T13:38:30.067Z,28
2016-06-17T13:39:30.086Z,32
2016-06-17T13:40:30.667Z,32
2016-06-17T13:41:30.077Z,32
2016-06-17T13:42:30.081Z,32
2016-06-17T13:43:30.083Z,32
2016-06-17T13:44:30.088Z,20
2016-06-17T13:45:30.137Z,36
2016-06-17T13:46:30.111Z,40
2016-06-17T13:47:30.753Z,40
2016-06-17T13:48:30.773Z,28
2016-06-17T13:49:30.168Z,28
2016-06-17T13:50:30.171Z,28
2016-06-17T13:51:30.784Z,24
2016-06-17T13:52:31.428Z,28
2016-06-17T13:53:30.196Z,28
2016-06-17T13:54:30.247Z,16
2016-06-17T13:55:30.250Z,28
2016-06-17T13:56:30.239Z,20
2016-06-17T13:57:30.258Z,12
2016-06-17T13:58:30.264Z,32
2016-06-17T13:59:30.285Z,28
2016-06-17T14:00:30.291Z,32
2016-06-17T14:01:30.922Z,28
2016-06-17T14:02:30.334Z,28
2016-06-17T14:03:30.931Z,12
2016-06-17T14:04:30.388Z,28
2016-06-17T14:05:30.377Z,28
2016-06-17T14:06:30.569Z,28
2016-06-17T14:07:41.264Z,28
2016-06-17T14:08:31.030Z,24
2016-06-17T14:09:31.050Z,28
2016-06-17T14:10:31.038Z,28
2016-06-17T14:11:30.479Z,28
2016-06-17T14:12:30.468Z,28
2016-06-17T14:13:30.471Z,24
2016-06-17T14:14:30.475Z,24
2016-06-17T14:15:30.493Z,28
2016-06-17T14:16:30.512Z,24
2016-06-17T14:17:30.515Z,24
2016-06-17T14:18:30.535Z,24
2016-06-17T14:19:31.195Z,24
2016-06-17T14:20:30.542Z,24
2016-06-17T14:21:30.560Z,24
2016-06-17T14:22:30.565Z,24
2016-06-17T14:23:30.614Z,24
2016-06-17T14:24:31.212Z,24
2016-06-17T14:25:30.607Z,24
2016-06-17T14:26:30.610Z,24
2016-06-17T14:27:30.628Z,20
2016-06-17T14:28:30.648Z,20
2016-06-17T14:29:30.666Z,20
2016-06-17T14:30:30.654Z,20
2016-06-17T14:31:30.690Z,20
2016-06-17T14:32:31.913Z,24
2016-06-17T14:33:30.714Z,24
2016-06-17T14:34:30.702Z,24
2016-06-17T14:35:30.754Z,24
2016-06-17T14:36:30.742Z,24
2016-06-17T14:37:30.745Z,24
2016-06-17T14:38:30.781Z,24
2016-06-17T14:39:30.785Z,24
2016-06-17T14:40:30.804Z,24
2016-06-17T14:41:30.793Z,24
2016-06-17T14:42:30.797Z,24
2016-06-17T14:43:31.440Z,20
2016-06-17T14:44:32.053Z,24
2016-06-17T14:45:30.868Z,24
2016-06-17T14:46:30.888Z,24